createdAt,value
2018-06-16T00:10:38.949Z,20.34
2018-06-16T00:13:12.701Z,20.33
2018-06-16T00:15:41.213Z,20.29
2018-06-16T00:18:09.629Z,20.27
2018-06-16T00:20:38.409Z,20.24
2018-06-16T00:23:07.297Z,20.24
2018-06-16T00:25:36.075Z,20.22
2018-06-16T00:28:04.917Z,20.19
2018-06-16T00:30:33.455Z,20.18
2018-06-16T00:36:08.875Z,20.22
2018-06-16T00:38:37.721Z,20.26
2018-06-16T00:41:06.140Z,20.26
2018-06-16T00:43:34.769Z,20.27
2018-06-16T00:46:03.162Z,20.25
2018-06-16T00:48:31.769Z,20.23
2018-06-16T00:51:00.086Z,20.22
2018-06-16T00:53:28.480Z,20.21
2018-06-16T00:55:57.397Z,20.21
2018-06-16T00:58:25.731Z,20.20
2018-06-16T01:00:54.034Z,20.19
2018-06-16T01:03:41.045Z,20.20
2018-06-16T01:06:09.337Z,20.14
2018-06-16T01:08:37.659Z,20.07
2018-06-16T01:11:06.091Z,20.01
2018-06-16T01:13:34.373Z,19.99
2018-06-16T01:16:02.663Z,19.94
2018-06-16T01:18:30.929Z,19.91
2018-06-16T01:20:59.205Z,19.87
2018-06-16T01:26:19.987Z,19.77
2018-06-16T01:28:48.345Z,19.75
2018-06-16T01:31:16.761Z,19.75
2018-06-16T01:33:45.145Z,19.75
2018-06-16T01:36:13.490Z,19.77
2018-06-16T01:38:41.789Z,19.78
2018-06-16T01:41:10.159Z,19.79
2018-06-16T01:43:38.515Z,19.83
2018-06-16T01:46:06.886Z,19.85
2018-06-16T01:48:35.269Z,19.87
2018-06-16T01:51:04.093Z,19.89
2018-06-16T01:59:17.740Z,19.92
2018-06-16T02:01:46.058Z,19.92
2018-06-16T02:04:14.409Z,19.93
2018-06-16T02:06:43.086Z,19.92
2018-06-16T02:09:12.889Z,19.89
2018-06-16T02:11:41.198Z,19.89
2018-06-16T02:14:11.097Z,19.87
2018-06-16T02:16:40.146Z,19.87
2018-06-16T02:19:08.578Z,19.88
2018-06-16T02:21:37.309Z,19.93
2018-06-16T02:24:06.477Z,19.92
2018-06-16T02:26:34.936Z,19.91
2018-06-16T02:29:04.033Z,19.91
2018-06-16T02:31:32.704Z,19.92
2018-06-16T02:34:01.433Z,19.91
2018-06-16T02:36:29.754Z,19.91
2018-06-16T02:38:59.309Z,19.91
2018-06-16T02:41:27.623Z,19.91
2018-06-16T02:43:55.956Z,19.92
2018-06-16T02:46:24.253Z,19.92
2018-06-16T02:48:52.587Z,19.90
2018-06-16T02:51:21.281Z,19.89
2018-06-16T02:53:49.611Z,19.87
2018-06-16T02:56:18.849Z,19.89
2018-06-16T02:58:47.169Z,19.84
2018-06-16T03:01:17.075Z,19.81
2018-06-16T03:03:45.661Z,19.81
2018-06-16T03:06:14.017Z,19.79
2018-06-16T03:08:42.541Z,19.79
2018-06-16T03:11:11.109Z,19.79
2018-06-16T03:13:39.588Z,19.78
2018-06-16T03:16:07.953Z,19.79
2018-06-16T03:18:36.314Z,19.78
2018-06-16T03:21:05.303Z,19.78
2018-06-16T03:23:38.737Z,19.76
2018-06-16T03:26:07.437Z,19.75
2018-06-16T03:28:35.709Z,19.77
2018-06-16T03:31:03.983Z,19.77
2018-06-16T03:33:37.481Z,19.75
2018-06-16T03:36:06.025Z,19.73
2018-06-16T03:38:34.897Z,19.71
2018-06-16T03:41:03.189Z,19.73
2018-06-16T03:49:26.185Z,19.74
2018-06-16T03:51:59.594Z,19.77
2018-06-16T03:54:28.119Z,19.76
2018-06-16T03:56:56.460Z,19.78
2018-06-16T03:59:24.751Z,19.80
2018-06-16T04:01:53.172Z,19.84
2018-06-16T04:04:21.445Z,19.86
2018-06-16T04:06:49.785Z,19.89
2018-06-16T04:09:18.677Z,19.89
2018-06-16T04:11:46.962Z,19.90
2018-06-16T04:14:15.237Z,19.91
2018-06-16T04:16:43.723Z,19.90
2018-06-16T04:19:12.063Z,19.91
2018-06-16T04:21:41.752Z,19.94
2018-06-16T04:24:10.210Z,19.95
2018-06-16T04:26:38.703Z,19.94
2018-06-16T04:29:07.105Z,19.95
2018-06-16T04:31:35.415Z,19.96
2018-06-16T04:34:17.551Z,19.97
2018-06-16T04:36:46.171Z,19.96
2018-06-16T04:39:14.494Z,19.98
2018-06-16T04:41:43.675Z,19.97
2018-06-16T04:44:12.029Z,19.98
2018-06-16T04:46:40.412Z,19.98
2018-06-16T04:49:08.829Z,20.00
2018-06-16T04:51:37.365Z,20.01
2018-06-16T04:54:05.785Z,20.03
2018-06-16T04:56:34.167Z,20.05
2018-06-16T04:59:02.566Z,20.06
2018-06-16T05:01:32.111Z,20.09
2018-06-16T05:04:09.981Z,20.08
2018-06-16T05:06:38.729Z,20.04
2018-06-16T05:09:09.155Z,20.04
2018-06-16T05:11:37.514Z,20.05
2018-06-16T05:14:06.397Z,20.07
2018-06-16T05:16:34.815Z,20.11
2018-06-16T05:19:03.777Z,20.12
2018-06-16T05:21:32.701Z,20.13
2018-06-16T05:24:06.635Z,20.14
2018-06-16T05:26:35.049Z,20.17
2018-06-16T05:29:03.469Z,20.18
2018-06-16T05:31:31.907Z,20.21
2018-06-16T05:37:02.473Z,20.24
2018-06-16T05:39:30.947Z,20.29
2018-06-16T05:41:59.425Z,20.30
2018-06-16T05:44:27.763Z,20.34
2018-06-16T05:46:56.097Z,20.36
2018-06-16T05:49:24.419Z,20.40
2018-06-16T05:51:53.411Z,20.40
2018-06-16T05:54:21.829Z,20.40
2018-06-16T05:56:50.356Z,20.44
2018-06-16T05:59:18.790Z,20.43
2018-06-16T06:01:47.080Z,20.43
2018-06-16T06:04:15.469Z,20.40
2018-06-16T06:06:43.829Z,20.38
2018-06-16T06:09:12.209Z,20.37
2018-06-16T06:11:41.057Z,20.38
2018-06-16T06:14:10.196Z,20.37
2018-06-16T06:16:39.120Z,20.39
2018-06-16T06:19:07.447Z,20.41
2018-06-16T06:21:35.815Z,20.45
2018-06-16T06:24:04.397Z,20.46
2018-06-16T06:26:32.835Z,20.49
2018-06-16T06:29:01.888Z,20.53
2018-06-16T06:31:30.996Z,20.53
2018-06-16T06:33:59.552Z,20.53
2018-06-16T06:36:27.998Z,20.52
2018-06-16T06:38:56.351Z,20.53
2018-06-16T06:41:25.589Z,20.53
2018-06-16T06:43:54.219Z,20.55
2018-06-16T06:46:23.153Z,20.58
2018-06-16T06:48:57.961Z,20.58
2018-06-16T06:51:26.551Z,20.56
2018-06-16T06:54:00.054Z,20.56
2018-06-16T06:56:28.517Z,20.57
2018-06-16T06:58:57.057Z,20.57
2018-06-16T07:01:25.839Z,20.56
2018-06-16T07:03:54.289Z,20.55
2018-06-16T07:06:22.661Z,20.59
2018-06-16T07:08:51.111Z,20.64
2018-06-16T07:11:24.273Z,20.72
2018-06-16T07:13:52.804Z,20.79
2018-06-16T07:16:21.375Z,20.85
2018-06-16T07:18:49.759Z,20.89
2018-06-16T07:21:18.417Z,20.96
2018-06-16T07:23:47.341Z,21.03
2018-06-16T07:26:16.360Z,21.08
2018-06-16T07:28:47.014Z,21.12
2018-06-16T07:31:15.490Z,21.14
2018-06-16T07:33:44.057Z,21.16
2018-06-16T07:36:12.645Z,21.17
2018-06-16T07:38:41.040Z,21.16
2018-06-16T07:41:09.841Z,21.18
2018-06-16T07:43:38.397Z,21.21
2018-06-16T07:46:06.979Z,21.26
2018-06-16T07:48:35.609Z,21.31
2018-06-16T07:51:04.277Z,21.35
2018-06-16T07:53:32.982Z,21.37
2018-06-16T07:56:01.420Z,21.37
2018-06-16T07:58:29.846Z,21.38
2018-06-16T08:00:58.691Z,21.45
2018-06-16T08:03:27.264Z,21.47
2018-06-16T08:05:55.800Z,21.53
2018-06-16T08:08:24.159Z,21.63
2018-06-16T08:10:52.687Z,21.67
2018-06-16T08:13:21.205Z,21.70
2018-06-16T08:15:51.165Z,21.74
2018-06-16T08:18:20.492Z,21.80
2018-06-16T08:20:52.283Z,21.88
2018-06-16T08:23:21.133Z,21.91
2018-06-16T08:25:50.027Z,21.97
2018-06-16T08:28:19.573Z,21.98
2018-06-16T08:30:48.695Z,21.99
2018-06-16T08:33:17.423Z,21.97
2018-06-16T08:35:45.831Z,22.04
2018-06-16T08:38:14.414Z,22.12
2018-06-16T08:40:42.864Z,22.14
2018-06-16T08:43:17.804Z,22.19
2018-06-16T08:45:46.365Z,22.25
2018-06-16T08:48:14.730Z,22.31
2018-06-16T08:50:43.410Z,22.36
2018-06-16T08:53:12.014Z,22.36
2018-06-16T08:55:40.516Z,22.44
2018-06-16T08:58:08.842Z,22.48
2018-06-16T09:00:37.316Z,22.56
2018-06-16T09:03:05.861Z,22.61
2018-06-16T09:05:34.611Z,22.57
2018-06-16T09:08:03.009Z,22.64
2018-06-16T09:10:32.429Z,22.71
2018-06-16T09:13:00.895Z,22.79
2018-06-16T09:15:29.395Z,22.86
2018-06-16T09:17:57.805Z,22.92
2018-06-16T09:20:26.353Z,22.98
2018-06-16T09:22:55.058Z,23.04
2018-06-16T09:25:23.627Z,23.08
2018-06-16T09:27:52.218Z,23.16
2018-06-16T09:30:20.539Z,23.16
2018-06-16T09:32:49.074Z,23.17
2018-06-16T09:35:17.486Z,23.33
2018-06-16T09:37:45.953Z,23.44
2018-06-16T09:40:14.593Z,23.55
2018-06-16T09:42:43.139Z,23.59
2018-06-16T09:45:11.559Z,23.64
2018-06-16T09:47:39.979Z,23.75
2018-06-16T09:50:10.852Z,23.76
2018-06-16T09:52:40.520Z,23.84
2018-06-16T09:55:08.921Z,23.84
2018-06-16T09:57:37.318Z,24.02
2018-06-16T10:00:10.313Z,24.21
2018-06-16T10:02:38.977Z,24.39
2018-06-16T10:05:07.524Z,24.52
2018-06-16T10:07:36.047Z,24.61
2018-06-16T10:10:04.419Z,24.63
2018-06-16T10:12:33.157Z,24.64
2018-06-16T10:15:01.537Z,24.59
2018-06-16T10:17:30.040Z,24.72
2018-06-16T10:20:03.961Z,24.78
2018-06-16T10:22:32.511Z,24.74
2018-06-16T10:25:00.880Z,24.76
2018-06-16T10:27:29.705Z,24.76
2018-06-16T10:29:58.245Z,24.81
2018-06-16T10:32:26.648Z,24.87
2018-06-16T10:34:55.378Z,24.90
2018-06-16T10:37:23.880Z,25.04
2018-06-16T10:39:52.356Z,25.18
2018-06-16T10:42:20.973Z,25.23
2018-06-16T10:44:49.375Z,25.38
2018-06-16T10:47:17.775Z,25.45
2018-06-16T10:49:45.651Z,25.51
2018-06-16T10:52:13.373Z,25.55
2018-06-16T10:54:41.400Z,25.60
2018-06-16T10:57:09.053Z,25.70
2018-06-16T10:59:37.087Z,25.78
2018-06-16T11:02:04.844Z,25.88
2018-06-16T11:04:32.541Z,25.99
2018-06-16T11:07:00.229Z,25.98
2018-06-16T11:09:27.841Z,25.92
2018-06-16T11:11:55.496Z,25.93
2018-06-16T11:14:23.395Z,25.91
2018-06-16T11:16:51.032Z,26.04
2018-06-16T11:19:18.875Z,26.18
2018-06-16T11:21:46.461Z,26.26
2018-06-16T11:24:14.181Z,26.34
2018-06-16T11:26:41.828Z,26.37
2018-06-16T11:29:09.809Z,26.46
2018-06-16T11:31:37.569Z,26.62
2018-06-16T11:34:05.215Z,26.73
2018-06-16T11:36:32.821Z,26.81
2018-06-16T11:39:00.433Z,26.72
2018-06-16T11:41:28.034Z,26.70
2018-06-16T11:43:55.721Z,26.82
2018-06-16T11:46:23.431Z,27.02
2018-06-16T11:48:51.851Z,27.27
2018-06-16T11:51:20.332Z,27.50
2018-06-16T11:53:48.800Z,27.48
2018-06-16T11:56:17.248Z,27.30
2018-06-16T11:58:45.959Z,27.16
2018-06-16T12:01:14.296Z,27.05
2018-06-16T12:03:48.559Z,26.86
2018-06-16T12:06:17.077Z,26.83
2018-06-16T12:08:45.551Z,26.85
2018-06-16T12:11:13.983Z,26.96
2018-06-16T12:13:42.445Z,27.16
2018-06-16T12:16:10.879Z,27.14
2018-06-16T12:18:39.560Z,27.08
2018-06-16T12:21:08.057Z,27.24
2018-06-16T12:23:36.382Z,27.43
2018-06-16T12:26:04.751Z,27.65
2018-06-16T12:28:33.140Z,27.78
2018-06-16T12:31:01.600Z,27.82
2018-06-16T12:33:30.087Z,27.94
2018-06-16T12:35:58.547Z,28.12
2018-06-16T12:38:26.938Z,28.25
2018-06-16T12:40:55.406Z,28.30
2018-06-16T12:43:24.372Z,28.15
2018-06-16T12:45:52.742Z,28.34
2018-06-16T12:48:21.060Z,28.24
2018-06-16T12:50:49.501Z,28.00
2018-06-16T12:53:22.998Z,27.82
2018-06-16T12:55:51.347Z,27.73
2018-06-16T12:58:19.650Z,27.60
2018-06-16T13:00:48.167Z,27.43
2018-06-16T13:03:16.577Z,27.26
2018-06-16T13:05:44.913Z,27.06
2018-06-16T13:08:13.205Z,26.92
2018-06-16T13:10:41.493Z,26.85
2018-06-16T13:13:09.854Z,26.85
2018-06-16T13:18:14.095Z,26.90
2018-06-16T13:20:42.445Z,26.91
2018-06-16T13:23:10.736Z,26.94
2018-06-16T13:25:39.016Z,26.98
2018-06-16T13:28:07.609Z,27.01
2018-06-16T13:30:35.914Z,27.02
2018-06-16T13:33:04.392Z,27.05
2018-06-16T13:35:32.843Z,27.07
2018-06-16T13:38:01.194Z,27.15
2018-06-16T13:40:29.674Z,27.22
2018-06-16T13:42:58.050Z,27.20
2018-06-16T13:45:26.465Z,27.17
2018-06-16T13:47:54.874Z,27.10
2018-06-16T13:50:23.328Z,27.07
2018-06-16T13:52:51.796Z,27.12
2018-06-16T13:55:20.181Z,27.19
2018-06-16T13:57:49.074Z,27.26
2018-06-16T14:00:17.763Z,27.31
2018-06-16T14:02:46.500Z,27.25
2018-06-16T14:05:14.954Z,27.17
2018-06-16T14:07:43.353Z,27.13
2018-06-16T14:10:11.687Z,27.23
2018-06-16T14:12:40.167Z,27.25
2018-06-16T14:15:09.256Z,27.25
2018-06-16T14:17:37.675Z,27.30
2018-06-16T14:20:06.881Z,27.43
2018-06-16T14:22:35.226Z,27.41
2018-06-16T14:25:03.635Z,27.25
2018-06-16T14:27:32.183Z,27.19
2018-06-16T14:30:00.633Z,27.20
2018-06-16T14:32:29.077Z,27.18
2018-06-16T14:34:58.104Z,27.17
2018-06-16T14:37:27.079Z,27.30
2018-06-16T14:39:57.074Z,27.41
2018-06-16T14:42:25.718Z,27.47
2018-06-16T14:44:54.282Z,27.48
2018-06-16T14:47:22.815Z,27.39
2018-06-16T14:49:51.190Z,27.40
2018-06-16T14:52:19.773Z,27.48
2018-06-16T14:54:48.195Z,27.46
2018-06-16T14:57:16.713Z,27.40
2018-06-16T14:59:45.167Z,27.31
2018-06-16T15:02:14.735Z,27.23
2018-06-16T15:04:43.457Z,27.16
2018-06-16T15:07:12.172Z,27.18
2018-06-16T15:09:40.537Z,27.07
2018-06-16T15:12:09.005Z,27.05
2018-06-16T15:14:37.489Z,26.99
2018-06-16T15:17:06.009Z,26.97
2018-06-16T15:19:34.453Z,26.94
2018-06-16T15:22:02.917Z,26.99
2018-06-16T15:24:31.501Z,26.94
2018-06-16T15:26:59.939Z,26.90
2018-06-16T15:29:28.346Z,26.85
2018-06-16T15:31:56.648Z,26.80
2018-06-16T15:34:25.444Z,26.78
2018-06-16T15:36:54.187Z,26.73
2018-06-16T15:39:22.822Z,26.67
2018-06-16T15:41:51.240Z,26.68
2018-06-16T15:44:19.623Z,26.76
2018-06-16T15:46:47.937Z,26.76
2018-06-16T15:49:16.336Z,26.74
2018-06-16T15:51:45.639Z,26.76
2018-06-16T15:54:14.176Z,26.70
2018-06-16T15:56:42.725Z,26.74
2018-06-16T15:59:11.397Z,26.72
2018-06-16T16:01:39.838Z,26.71
2018-06-16T16:04:08.202Z,26.69
2018-06-16T16:06:36.657Z,26.66
2018-06-16T16:09:06.934Z,26.67
2018-06-16T16:11:35.596Z,26.68
2018-06-16T16:14:04.070Z,26.70
2018-06-16T16:16:32.434Z,26.73
2018-06-16T16:19:00.873Z,26.74
2018-06-16T16:21:29.416Z,26.70
2018-06-16T16:23:57.966Z,26.69
2018-06-16T16:26:26.344Z,26.65
2018-06-16T16:28:55.472Z,26.64
2018-06-16T16:31:23.956Z,26.66
2018-06-16T16:33:52.522Z,26.67
2018-06-16T16:36:21.232Z,26.67
2018-06-16T16:38:49.703Z,26.69
2018-06-16T16:41:18.117Z,26.68
2018-06-16T16:43:47.074Z,26.61
2018-06-16T16:46:15.547Z,26.59
2018-06-16T16:48:44.092Z,26.61
2018-06-16T16:51:12.838Z,26.59
2018-06-16T16:53:41.783Z,26.60
2018-06-16T16:56:10.222Z,26.57
2018-06-16T16:58:38.582Z,26.52
2018-06-16T17:01:07.383Z,26.49
2018-06-16T17:03:35.861Z,26.47
2018-06-16T17:06:04.317Z,26.43
2018-06-16T17:08:33.392Z,26.40
2018-06-16T17:11:02.775Z,26.39
2018-06-16T17:13:31.319Z,26.40
2018-06-16T17:15:59.845Z,26.40
2018-06-16T17:18:28.620Z,26.32
2018-06-16T17:20:57.122Z,26.29
2018-06-16T17:23:25.583Z,26.28
2018-06-16T17:25:54.023Z,26.29
2018-06-16T17:28:22.594Z,26.24
2018-06-16T17:30:51.046Z,26.24
2018-06-16T17:33:19.645Z,26.22
2018-06-16T17:35:48.454Z,26.20
2018-06-16T17:38:16.957Z,26.16
2018-06-16T17:40:45.434Z,26.14
2018-06-16T17:43:13.846Z,26.14
2018-06-16T17:45:42.304Z,26.13
2018-06-16T17:48:10.971Z,26.13
2018-06-16T17:50:39.441Z,26.11
2018-06-16T17:53:08.141Z,26.13
2018-06-16T17:55:36.575Z,26.10
2018-06-16T17:58:05.007Z,26.08
2018-06-16T18:00:33.728Z,26.05
2018-06-16T18:03:02.248Z,26.04
2018-06-16T18:05:30.749Z,26.02
2018-06-16T18:07:59.205Z,26.01
2018-06-16T18:10:27.794Z,25.97
2018-06-16T18:12:56.472Z,25.96
2018-06-16T18:15:24.888Z,25.97
2018-06-16T18:17:53.429Z,25.95
2018-06-16T18:20:22.054Z,25.94
2018-06-16T18:22:50.676Z,25.90
2018-06-16T18:25:19.660Z,25.88
2018-06-16T18:27:48.276Z,25.86
2018-06-16T18:30:16.890Z,25.84
2018-06-16T18:32:46.043Z,25.82
2018-06-16T18:35:14.554Z,25.83
2018-06-16T18:37:43.120Z,25.79
2018-06-16T18:40:11.641Z,25.79
2018-06-16T18:42:40.162Z,25.81
2018-06-16T18:45:08.659Z,25.79
2018-06-16T18:47:37.434Z,25.81
2018-06-16T18:50:05.910Z,25.78
2018-06-16T18:52:34.409Z,25.76
2018-06-16T18:55:04.043Z,25.75
2018-06-16T18:57:33.099Z,25.72
2018-06-16T19:00:02.047Z,25.71
2018-06-16T19:02:31.171Z,25.67
2018-06-16T19:04:59.884Z,25.65
2018-06-16T19:07:28.622Z,25.66
2018-06-16T19:09:57.579Z,25.64
2018-06-16T19:12:26.144Z,25.65
2018-06-16T19:14:54.548Z,25.64
2018-06-16T19:17:23.487Z,25.60
2018-06-16T19:19:51.884Z,25.58
2018-06-16T19:22:20.376Z,25.54
2018-06-16T19:24:48.874Z,25.55
2018-06-16T19:27:17.279Z,25.52
2018-06-16T19:29:45.791Z,25.52
2018-06-16T19:32:14.481Z,25.51
2018-06-16T19:34:42.974Z,25.44
2018-06-16T19:37:11.360Z,25.35
2018-06-16T19:39:39.738Z,25.39
2018-06-16T19:42:08.159Z,25.40
2018-06-16T19:44:36.556Z,25.41
2018-06-16T19:47:05.101Z,25.40
2018-06-16T19:49:33.661Z,25.41
2018-06-16T19:52:02.021Z,25.39
2018-06-16T19:54:30.698Z,25.36
2018-06-16T19:56:59.166Z,25.36
2018-06-16T19:59:27.998Z,25.34
2018-06-16T20:01:56.516Z,25.32
2018-06-16T20:04:25.340Z,25.29
2018-06-16T20:06:53.730Z,25.29
2018-06-16T20:09:22.419Z,25.25
2018-06-16T20:11:50.961Z,25.20
2018-06-16T20:14:19.448Z,25.18
2018-06-16T20:16:47.820Z,25.19
2018-06-16T20:19:16.182Z,25.17
2018-06-16T20:21:44.970Z,25.16
2018-06-16T20:24:13.576Z,25.12
2018-06-16T20:26:42.024Z,25.12
2018-06-16T20:29:10.748Z,25.10
2018-06-16T20:31:39.398Z,25.09
2018-06-16T20:34:07.838Z,25.07
2018-06-16T20:36:36.376Z,25.04
2018-06-16T20:39:06.551Z,24.98
2018-06-16T20:41:34.996Z,25.01
2018-06-16T20:44:03.606Z,24.96
2018-06-16T20:46:32.263Z,24.93
2018-06-16T20:49:00.993Z,24.90
2018-06-16T20:51:29.821Z,24.88
2018-06-16T20:53:58.356Z,24.88
2018-06-16T20:56:26.874Z,24.87
2018-06-16T20:58:56.022Z,24.84
2018-06-16T21:01:24.632Z,24.81
2018-06-16T21:03:53.465Z,24.78
2018-06-16T21:06:22.293Z,24.70
2018-06-16T21:08:50.816Z,24.68
2018-06-16T21:11:19.430Z,24.61
2018-06-16T21:13:48.194Z,24.62
2018-06-16T21:16:16.727Z,24.56
2018-06-16T21:18:45.441Z,24.65
2018-06-16T21:21:14.136Z,24.69
2018-06-16T21:23:43.244Z,24.67
2018-06-16T21:26:12.575Z,24.68
2018-06-16T21:28:41.150Z,24.66
2018-06-16T21:31:10.308Z,24.65
2018-06-16T21:33:38.831Z,24.64
2018-06-16T21:36:07.870Z,24.58
2018-06-16T21:38:36.412Z,24.55
2018-06-16T21:41:05.032Z,24.52
2018-06-16T21:43:33.585Z,24.52
2018-06-16T21:46:02.240Z,24.53
2018-06-16T21:48:30.766Z,24.51
2018-06-16T21:50:59.109Z,24.52
2018-06-16T21:53:27.502Z,24.56
2018-06-16T21:55:55.875Z,24.51
2018-06-16T21:58:24.446Z,24.51
2018-06-16T22:00:52.824Z,24.48
2018-06-16T22:03:21.237Z,24.48
2018-06-16T22:05:49.633Z,24.49
2018-06-16T22:08:25.250Z,24.44
2018-06-16T22:10:53.685Z,24.42
2018-06-16T22:13:22.428Z,24.42
2018-06-16T22:15:50.816Z,24.42
2018-06-16T22:18:19.194Z,24.39
2018-06-16T22:20:47.545Z,24.39
2018-06-16T22:23:16.112Z,24.42
2018-06-16T22:25:44.523Z,24.45
2018-06-16T22:28:12.931Z,24.40
2018-06-16T22:30:41.369Z,24.41
2018-06-16T22:33:09.715Z,24.40
2018-06-16T22:35:38.405Z,24.38
2018-06-16T22:38:06.708Z,24.42
2018-06-16T22:40:35.158Z,24.36
2018-06-16T22:43:03.584Z,24.37
2018-06-16T22:45:31.892Z,24.37
2018-06-16T22:48:00.222Z,24.37
2018-06-16T22:50:28.528Z,24.30
2018-06-16T22:52:57.256Z,24.21
2018-06-16T22:55:26.275Z,24.13
2018-06-16T22:57:56.170Z,24.09
2018-06-16T23:00:26.346Z,24.01
2018-06-16T23:02:54.994Z,24.03
2018-06-16T23:05:23.436Z,24.06
2018-06-16T23:07:52.282Z,24.00
2018-06-16T23:10:20.596Z,23.99
2018-06-16T23:12:48.978Z,24.00
2018-06-16T23:15:17.486Z,23.95
2018-06-16T23:17:46.238Z,23.78
2018-06-16T23:20:14.811Z,23.67
2018-06-16T23:22:43.168Z,23.52
2018-06-16T23:25:11.560Z,23.42
2018-06-16T23:27:39.912Z,23.28
2018-06-16T23:30:08.268Z,23.23
2018-06-16T23:32:41.640Z,23.32
2018-06-16T23:35:10.050Z,23.35
2018-06-16T23:37:38.542Z,23.42
2018-06-16T23:40:06.959Z,23.38
2018-06-16T23:42:35.337Z,23.36
2018-06-16T23:45:04.056Z,23.33
2018-06-16T23:47:32.334Z,23.34
2018-06-16T23:50:00.691Z,23.23
2018-06-16T23:52:47.946Z,23.10
2018-06-16T23:55:16.778Z,23.01
2018-06-16T23:57:45.160Z,22.95
